sensor_id;sensor_type;location;lat;lon;timestamp;temperature;humidity
4795;DHT22;2411;47.060;15.064;2024-03-08T00:00:11;0.30;1.00
4795;DHT22;2411;47.060;15.064;2024-03-08T00:02:44;0.40;1.00
4795;DHT22;2411;47.060;15.064;2024-03-08T00:05:12;0.30;1.00
4795;DHT22;2411;47.060;15.064;2024-03-08T00:07:40;0.10;1.00
4795;DHT22;2411;47.060;15.064;2024-03-08T00:10:09;0.00;1.00
4795;DHT22;2411;47.060;15.064;2024-03-08T00:12:42;0.00;1.00
4795;DHT22;2411;47.060;15.064;2024-03-08T00:15:20;0.00;1.00
4795;DHT22;2411;47.060;15.064;2024-03-08T00:17:50;0.10;1.00
4795;DHT22;2411;47.060;15.064;2024-03-08T00:20:17;0.10;1.00
4795;DHT22;2411;47.060;15.064;2024-03-08T00:22:47;0.20;1.00
4795;DHT22;2411;47.060;15.064;2024-03-08T00:25:14;0.20;1.00
4795;DHT22;2411;47.060;15.064;2024-03-08T00:27:41;0.20;1.00
4795;DHT22;2411;47.060;15.064;2024-03-08T00:30:09;0.40;1.00
4795;DHT22;2411;47.060;15.064;2024-03-08T00:32:37;0.60;1.00
4795;DHT22;2411;47.060;15.064;2024-03-08T00:35:05;0.40;1.00
4795;DHT22;2411;47.060;15.064;2024-03-08T00:37:35;0.50;1.00
4795;DHT22;2411;47.060;15.064;2024-03-08T00:40:03;0.60;1.00
4795;DHT22;2411;47.060;15.064;2024-03-08T00:42:30;0.60;1.00
4795;DHT22;2411;47.060;15.064;2024-03-08T00:44:57;0.70;1.00
4795;DHT22;2411;47.060;15.064;2024-03-08T00:47:25;0.70;1.00
4795;DHT22;2411;47.060;15.064;2024-03-08T00:49:52;0.70;1.00
4795;DHT22;2411;47.060;15.064;2024-03-08T00:52:20;0.80;1.00
4795;DHT22;2411;47.060;15.064;2024-03-08T00:54:47;0.90;1.00
4795;DHT22;2411;47.060;15.064;2024-03-08T00:57:14;0.80;1.00
4795;DHT22;2411;47.060;15.064;2024-03-08T00:59:41;0.90;1.00
4795;DHT22;2411;47.060;15.064;2024-03-08T01:02:09;1.00;1.00
4795;DHT22;2411;47.060;15.064;2024-03-08T01:04:37;1.00;1.00
4795;DHT22;2411;47.060;15.064;2024-03-08T01:07:04;1.00;1.00
4795;DHT22;2411;47.060;15.064;2024-03-08T01:09:31;0.90;1.00
4795;DHT22;2411;47.060;15.064;2024-03-08T01:11:58;0.80;1.00
4795;DHT22;2411;47.060;15.064;2024-03-08T01:14:26;0.50;1.00
4795;DHT22;2411;47.060;15.064;2024-03-08T01:16:53;0.50;1.00
4795;DHT22;2411;47.060;15.064;2024-03-08T01:19:22;0.30;1.00
4795;DHT22;2411;47.060;15.064;2024-03-08T01:21:48;0.30;1.00
4795;DHT22;2411;47.060;15.064;2024-03-08T01:24:15;0.20;1.00
4795;DHT22;2411;47.060;15.064;2024-03-08T01:26:42;0.20;1.00
4795;DHT22;2411;47.060;15.064;2024-03-08T01:29:09;0.30;1.00
4795;DHT22;2411;47.060;15.064;2024-03-08T01:31:36;0.20;1.00
4795;DHT22;2411;47.060;15.064;2024-03-08T01:34:03;0.20;1.00
4795;DHT22;2411;47.060;15.064;2024-03-08T01:36:31;0.20;1.00
4795;DHT22;2411;47.060;15.064;2024-03-08T01:38:58;0.20;1.00
4795;DHT22;2411;47.060;15.064;2024-03-08T01:41:25;0.30;1.00
4795;DHT22;2411;47.060;15.064;2024-03-08T01:43:56;0.20;1.00
4795;DHT22;2411;47.060;15.064;2024-03-08T01:46:23;0.20;1.00
4795;DHT22;2411;47.060;15.064;2024-03-08T01:48:51;0.20;1.00
4795;DHT22;2411;47.060;15.064;2024-03-08T01:51:19;0.20;1.00
4795;DHT22;2411;47.060;15.064;2024-03-08T01:53:47;0.10;1.00
4795;DHT22;2411;47.060;15.064;2024-03-08T01:56:15;0.10;1.00
4795;DHT22;2411;47.060;15.064;2024-03-08T01:58:42;0.00;1.00
4795;DHT22;2411;47.060;15.064;2024-03-08T02:01:14;-0.10;1.00
4795;DHT22;2411;47.060;15.064;2024-03-08T02:03:43;-0.20;1.00
4795;DHT22;2411;47.060;15.064;2024-03-08T02:06:11;-0.10;1.00
4795;DHT22;2411;47.060;15.064;2024-03-08T02:08:45;-0.10;1.00
4795;DHT22;2411;47.060;15.064;2024-03-08T02:11:14;-0.30;1.00
4795;DHT22;2411;47.060;15.064;2024-03-08T02:13:43;-0.30;1.00
4795;DHT22;2411;47.060;15.064;2024-03-08T02:16:10;-0.30;1.00
4795;DHT22;2411;47.060;15.064;2024-03-08T02:18:37;-0.40;1.00
4795;DHT22;2411;47.060;15.064;2024-03-08T02:21:06;-0.40;1.00
4795;DHT22;2411;47.060;15.064;2024-03-08T02:23:35;-0.40;1.00
4795;DHT22;2411;47.060;15.064;2024-03-08T02:26:04;-0.30;1.00
4795;DHT22;2411;47.060;15.064;2024-03-08T02:28:31;-0.40;1.00
4795;DHT22;2411;47.060;15.064;2024-03-08T02:30:59;-0.50;1.00
4795;DHT22;2411;47.060;15.064;2024-03-08T02:33:27;-0.60;1.00
4795;DHT22;2411;47.060;15.064;2024-03-08T02:35:55;-0.50;1.00
4795;DHT22;2411;47.060;15.064;2024-03-08T02:38:25;-0.40;1.00
4795;DHT22;2411;47.060;15.064;2024-03-08T02:40:53;-0.40;1.00
4795;DHT22;2411;47.060;15.064;2024-03-08T02:43:22;-0.20;1.00
4795;DHT22;2411;47.060;15.064;2024-03-08T02:45:51;-0.10;1.00
4795;DHT22;2411;47.060;15.064;2024-03-08T02:48:21;-0.10;1.00
4795;DHT22;2411;47.060;15.064;2024-03-08T02:50:49;0.00;1.00
4795;DHT22;2411;47.060;15.064;2024-03-08T02:53:18;-0.10;1.00
4795;DHT22;2411;47.060;15.064;2024-03-08T02:55:49;-0.10;1.00
4795;DHT22;2411;47.060;15.064;2024-03-08T02:58:16;-0.10;1.00
4795;DHT22;2411;47.060;15.064;2024-03-08T03:00:43;-0.10;1.00
4795;DHT22;2411;47.060;15.064;2024-03-08T03:03:11;0.00;1.00
4795;DHT22;2411;47.060;15.064;2024-03-08T03:05:39;0.00;1.00
4795;DHT22;2411;47.060;15.064;2024-03-08T03:08:14;0.00;1.00
4795;DHT22;2411;47.060;15.064;2024-03-08T03:10:42;-0.10;1.00
4795;DHT22;2411;47.060;15.064;2024-03-08T03:13:09;0.00;1.00
4795;DHT22;2411;47.060;15.064;2024-03-08T03:15:36;0.00;1.00
4795;DHT22;2411;47.060;15.064;2024-03-08T03:18:04;0.00;1.00
4795;DHT22;2411;47.060;15.064;2024-03-08T03:20:35;0.00;1.00
4795;DHT22;2411;47.060;15.064;2024-03-08T03:23:09;0.00;1.00
4795;DHT22;2411;47.060;15.064;2024-03-08T03:25:36;0.00;1.00
4795;DHT22;2411;47.060;15.064;2024-03-08T03:28:05;-0.10;1.00
4795;DHT22;2411;47.060;15.064;2024-03-08T03:30:34;-0.10;1.00
4795;DHT22;2411;47.060;15.064;2024-03-08T03:33:02;0.00;1.00
4795;DHT22;2411;47.060;15.064;2024-03-08T03:35:34;0.00;1.00
4795;DHT22;2411;47.060;15.064;2024-03-08T03:38:10;0.10;1.00
4795;DHT22;2411;47.060;15.064;2024-03-08T03:40:39;0.10;1.00
4795;DHT22;2411;47.060;15.064;2024-03-08T03:43:09;-0.10;1.00
4795;DHT22;2411;47.060;15.064;2024-03-08T03:45:37;-0.10;1.00
4795;DHT22;2411;47.060;15.064;2024-03-08T03:48:07;-0.10;1.00
4795;DHT22;2411;47.060;15.064;2024-03-08T03:50:37;-0.10;1.00
4795;DHT22;2411;47.060;15.064;2024-03-08T03:53:05;-0.10;1.00
4795;DHT22;2411;47.060;15.064;2024-03-08T03:55:36;-0.10;1.00
4795;DHT22;2411;47.060;15.064;2024-03-08T03:58:07;-0.30;1.00
4795;DHT22;2411;47.060;15.064;2024-03-08T04:00:34;-0.20;1.00
4795;DHT22;2411;47.060;15.064;2024-03-08T04:03:01;0.00;1.00
4795;DHT22;2411;47.060;15.064;2024-03-08T04:05:28;0.10;1.00
4795;DHT22;2411;47.060;15.064;2024-03-08T04:07:55;0.20;1.00
4795;DHT22;2411;47.060;15.064;2024-03-08T04:10:23;0.10;1.00
4795;DHT22;2411;47.060;15.064;2024-03-08T04:12:51;0.20;1.00
4795;DHT22;2411;47.060;15.064;2024-03-08T04:15:18;0.30;1.00
4795;DHT22;2411;47.060;15.064;2024-03-08T04:17:45;0.40;1.00
4795;DHT22;2411;47.060;15.064;2024-03-08T04:20:13;0.40;1.00
4795;DHT22;2411;47.060;15.064;2024-03-08T04:22:42;0.40;1.00
4795;DHT22;2411;47.060;15.064;2024-03-08T04:25:11;0.30;1.00
4795;DHT22;2411;47.060;15.064;2024-03-08T04:27:38;0.30;1.00
4795;DHT22;2411;47.060;15.064;2024-03-08T04:30:05;0.30;1.00
4795;DHT22;2411;47.060;15.064;2024-03-08T04:32:35;0.30;1.00
4795;DHT22;2411;47.060;15.064;2024-03-08T04:35:02;0.30;1.00
4795;DHT22;2411;47.060;15.064;2024-03-08T04:37:30;0.20;1.00
4795;DHT22;2411;47.060;15.064;2024-03-08T04:39:58;0.30;1.00
4795;DHT22;2411;47.060;15.064;2024-03-08T04:42:28;0.20;1.00
4795;DHT22;2411;47.060;15.064;2024-03-08T04:44:56;0.30;1.00
4795;DHT22;2411;47.060;15.064;2024-03-08T04:47:24;0.40;1.00
4795;DHT22;2411;47.060;15.064;2024-03-08T04:49:52;0.40;1.00
4795;DHT22;2411;47.060;15.064;2024-03-08T04:52:20;0.40;1.00
4795;DHT22;2411;47.060;15.064;2024-03-08T04:54:49;0.20;1.00
4795;DHT22;2411;47.060;15.064;2024-03-08T04:57:16;0.00;1.00
4795;DHT22;2411;47.060;15.064;2024-03-08T04:59:45;0.00;1.00
4795;DHT22;2411;47.060;15.064;2024-03-08T05:02:12;0.10;1.00
4795;DHT22;2411;47.060;15.064;2024-03-08T05:04:39;0.00;1.00
4795;DHT22;2411;47.060;15.064;2024-03-08T05:07:06;-0.10;1.00
4795;DHT22;2411;47.060;15.064;2024-03-08T05:09:34;-0.10;1.00
4795;DHT22;2411;47.060;15.064;2024-03-08T05:12:03;0.00;1.00
4795;DHT22;2411;47.060;15.064;2024-03-08T05:14:30;0.00;1.00
4795;DHT22;2411;47.060;15.064;2024-03-08T05:16:57;0.00;1.00
4795;DHT22;2411;47.060;15.064;2024-03-08T05:19:24;0.10;1.00
4795;DHT22;2411;47.060;15.064;2024-03-08T05:21:52;0.20;1.00
4795;DHT22;2411;47.060;15.064;2024-03-08T05:24:19;0.20;1.00
4795;DHT22;2411;47.060;15.064;2024-03-08T05:26:46;0.30;1.00
4795;DHT22;2411;47.060;15.064;2024-03-08T05:29:14;0.40;1.00
4795;DHT22;2411;47.060;15.064;2024-03-08T05:31:51;0.40;1.00
4795;DHT22;2411;47.060;15.064;2024-03-08T05:34:21;0.40;1.00
4795;DHT22;2411;47.060;15.064;2024-03-08T05:36:49;0.50;1.00
4795;DHT22;2411;47.060;15.064;2024-03-08T05:39:18;0.60;1.00
4795;DHT22;2411;47.060;15.064;2024-03-08T05:41:46;0.70;1.00
4795;DHT22;2411;47.060;15.064;2024-03-08T05:44:14;0.70;1.00
4795;DHT22;2411;47.060;15.064;2024-03-08T05:46:41;0.80;1.00
4795;DHT22;2411;47.060;15.064;2024-03-08T05:49:08;0.70;1.00
4795;DHT22;2411;47.060;15.064;2024-03-08T05:51:38;0.70;1.00
4795;DHT22;2411;47.060;15.064;2024-03-08T05:54:10;0.70;1.00
4795;DHT22;2411;47.060;15.064;2024-03-08T05:56:41;0.70;1.00
4795;DHT22;2411;47.060;15.064;2024-03-08T05:59:12;0.60;1.00
4795;DHT22;2411;47.060;15.064;2024-03-08T06:01:40;0.60;1.00
4795;DHT22;2411;47.060;15.064;2024-03-08T06:04:09;0.70;1.00
4795;DHT22;2411;47.060;15.064;2024-03-08T06:06:38;0.70;1.00
4795;DHT22;2411;47.060;15.064;2024-03-08T06:09:07;0.60;1.00
4795;DHT22;2411;47.060;15.064;2024-03-08T06:11:37;0.60;1.00
4795;DHT22;2411;47.060;15.064;2024-03-08T06:14:05;0.50;1.00
4795;DHT22;2411;47.060;15.064;2024-03-08T06:16:33;0.70;1.00
4795;DHT22;2411;47.060;15.064;2024-03-08T06:19:00;0.90;1.00
4795;DHT22;2411;47.060;15.064;2024-03-08T06:21:29;1.10;1.00
4795;DHT22;2411;47.060;15.064;2024-03-08T06:23:56;1.20;1.00
4795;DHT22;2411;47.060;15.064;2024-03-08T06:26:25;1.20;1.00
4795;DHT22;2411;47.060;15.064;2024-03-08T06:28:57;1.20;1.00
4795;DHT22;2411;47.060;15.064;2024-03-08T06:31:24;1.40;1.00
4795;DHT22;2411;47.060;15.064;2024-03-08T06:33:51;1.60;1.00
4795;DHT22;2411;47.060;15.064;2024-03-08T06:36:22;1.70;1.00
4795;DHT22;2411;47.060;15.064;2024-03-08T06:38:50;1.80;1.00
4795;DHT22;2411;47.060;15.064;2024-03-08T06:41:17;1.80;1.00
4795;DHT22;2411;47.060;15.064;2024-03-08T06:43:45;1.80;1.00
4795;DHT22;2411;47.060;15.064;2024-03-08T06:46:15;1.90;1.00
4795;DHT22;2411;47.060;15.064;2024-03-08T06:48:42;1.90;1.00
4795;DHT22;2411;47.060;15.064;2024-03-08T06:51:10;2.00;1.00
4795;DHT22;2411;47.060;15.064;2024-03-08T06:53:38;2.00;1.00
4795;DHT22;2411;47.060;15.064;2024-03-08T06:56:06;1.80;1.00
4795;DHT22;2411;47.060;15.064;2024-03-08T06:58:35;1.70;1.00
4795;DHT22;2411;47.060;15.064;2024-03-08T07:01:02;1.80;1.00
4795;DHT22;2411;47.060;15.064;2024-03-08T07:03:32;1.60;1.00
4795;DHT22;2411;47.060;15.064;2024-03-08T07:06:00;1.70;1.00
4795;DHT22;2411;47.060;15.064;2024-03-08T07:08:29;1.80;1.00
4795;DHT22;2411;47.060;15.064;2024-03-08T07:10:57;1.80;1.00
4795;DHT22;2411;47.060;15.064;2024-03-08T07:13:26;1.90;1.00
4795;DHT22;2411;47.060;15.064;2024-03-08T07:15:56;2.00;1.00
4795;DHT22;2411;47.060;15.064;2024-03-08T07:18:23;2.00;1.00
4795;DHT22;2411;47.060;15.064;2024-03-08T07:20:50;2.10;1.00
4795;DHT22;2411;47.060;15.064;2024-03-08T07:23:17;2.10;1.00
4795;DHT22;2411;47.060;15.064;2024-03-08T07:26:03;2.20;1.00
4795;DHT22;2411;47.060;15.064;2024-03-08T07:28:30;2.30;1.00
4795;DHT22;2411;47.060;15.064;2024-03-08T07:30:58;2.20;1.00
4795;DHT22;2411;47.060;15.064;2024-03-08T07:33:39;2.20;1.00
4795;DHT22;2411;47.060;15.064;2024-03-08T07:36:07;2.30;1.00
4795;DHT22;2411;47.060;15.064;2024-03-08T07:38:35;2.30;1.00
4795;DHT22;2411;47.060;15.064;2024-03-08T07:41:02;2.40;1.00
4795;DHT22;2411;47.060;15.064;2024-03-08T07:43:31;2.50;1.00
4795;DHT22;2411;47.060;15.064;2024-03-08T07:46:00;2.50;1.00
4795;DHT22;2411;47.060;15.064;2024-03-08T07:48:27;2.40;1.00
4795;DHT22;2411;47.060;15.064;2024-03-08T07:50:54;2.60;1.00
4795;DHT22;2411;47.060;15.064;2024-03-08T07:53:22;2.90;1.00
4795;DHT22;2411;47.060;15.064;2024-03-08T07:55:51;3.00;1.00
4795;DHT22;2411;47.060;15.064;2024-03-08T07:58:19;2.80;1.00
4795;DHT22;2411;47.060;15.064;2024-03-08T08:00:46;3.10;1.00
4795;DHT22;2411;47.060;15.064;2024-03-08T08:03:13;3.20;1.00
4795;DHT22;2411;47.060;15.064;2024-03-08T08:05:40;3.30;1.00
4795;DHT22;2411;47.060;15.064;2024-03-08T08:08:08;3.30;1.00
4795;DHT22;2411;47.060;15.064;2024-03-08T08:10:38;3.40;1.00
4795;DHT22;2411;47.060;15.064;2024-03-08T08:13:05;3.40;1.00
4795;DHT22;2411;47.060;15.064;2024-03-08T08:15:32;3.50;1.00
4795;DHT22;2411;47.060;15.064;2024-03-08T08:18:02;3.60;1.00
4795;DHT22;2411;47.060;15.064;2024-03-08T08:20:33;3.70;1.00
4795;DHT22;2411;47.060;15.064;2024-03-08T08:23:00;3.80;1.00
4795;DHT22;2411;47.060;15.064;2024-03-08T08:25:27;3.80;1.00
4795;DHT22;2411;47.060;15.064;2024-03-08T08:27:54;3.90;1.00
4795;DHT22;2411;47.060;15.064;2024-03-08T08:30:21;3.80;1.00
4795;DHT22;2411;47.060;15.064;2024-03-08T08:32:48;3.90;1.00
4795;DHT22;2411;47.060;15.064;2024-03-08T08:35:16;4.10;1.00
4795;DHT22;2411;47.060;15.064;2024-03-08T08:37:45;4.10;1.00
4795;DHT22;2411;47.060;15.064;2024-03-08T08:40:12;4.30;1.00
4795;DHT22;2411;47.060;15.064;2024-03-08T08:42:45;4.20;1.00
4795;DHT22;2411;47.060;15.064;2024-03-08T08:45:16;4.50;1.00
4795;DHT22;2411;47.060;15.064;2024-03-08T08:47:51;4.20;1.00
4795;DHT22;2411;47.060;15.064;2024-03-08T08:50:18;4.60;1.00
4795;DHT22;2411;47.060;15.064;2024-03-08T08:52:51;4.70;1.00
4795;DHT22;2411;47.060;15.064;2024-03-08T08:55:18;4.80;1.00
4795;DHT22;2411;47.060;15.064;2024-03-08T08:57:48;4.80;1.00
4795;DHT22;2411;47.060;15.064;2024-03-08T09:00:16;4.80;1.00
4795;DHT22;2411;47.060;15.064;2024-03-08T09:02:43;4.70;1.00
4795;DHT22;2411;47.060;15.064;2024-03-08T09:05:11;4.70;1.00
4795;DHT22;2411;47.060;15.064;2024-03-08T09:07:39;4.60;1.00
4795;DHT22;2411;47.060;15.064;2024-03-08T09:10:06;4.70;1.00
4795;DHT22;2411;47.060;15.064;2024-03-08T09:12:39;4.60;1.00
4795;DHT22;2411;47.060;15.064;2024-03-08T09:15:07;4.70;1.00
4795;DHT22;2411;47.060;15.064;2024-03-08T09:17:40;5.00;1.00
4795;DHT22;2411;47.060;15.064;2024-03-08T09:20:09;5.00;1.00
4795;DHT22;2411;47.060;15.064;2024-03-08T09:22:38;5.10;1.00
4795;DHT22;2411;47.060;15.064;2024-03-08T09:25:07;5.30;1.00
4795;DHT22;2411;47.060;15.064;2024-03-08T09:27:36;5.60;1.00
4795;DHT22;2411;47.060;15.064;2024-03-08T09:30:06;5.30;1.00
4795;DHT22;2411;47.060;15.064;2024-03-08T09:32:34;5.50;1.00
4795;DHT22;2411;47.060;15.064;2024-03-08T09:35:01;5.50;1.00
4795;DHT22;2411;47.060;15.064;2024-03-08T09:37:29;5.50;1.00
4795;DHT22;2411;47.060;15.064;2024-03-08T09:39:57;5.40;1.00
4795;DHT22;2411;47.060;15.064;2024-03-08T09:42:26;5.70;1.00
4795;DHT22;2411;47.060;15.064;2024-03-08T09:44:53;5.60;1.00
4795;DHT22;2411;47.060;15.064;2024-03-08T09:47:22;5.80;1.00
4795;DHT22;2411;47.060;15.064;2024-03-08T09:49:50;5.90;1.00
4795;DHT22;2411;47.060;15.064;2024-03-08T09:52:18;6.10;1.00
4795;DHT22;2411;47.060;15.064;2024-03-08T09:54:45;5.90;1.00
4795;DHT22;2411;47.060;15.064;2024-03-08T09:57:13;5.50;1.00
4795;DHT22;2411;47.060;15.064;2024-03-08T09:59:40;5.70;1.00
4795;DHT22;2411;47.060;15.064;2024-03-08T10:02:12;5.50;1.00
4795;DHT22;2411;47.060;15.064;2024-03-08T10:04:42;5.20;1.00
4795;DHT22;2411;47.060;15.064;2024-03-08T10:07:09;5.30;1.00
4795;DHT22;2411;47.060;15.064;2024-03-08T10:09:36;5.40;1.00
4795;DHT22;2411;47.060;15.064;2024-03-08T10:12:04;5.20;1.00
4795;DHT22;2411;47.060;15.064;2024-03-08T10:14:32;5.00;1.00
4795;DHT22;2411;47.060;15.064;2024-03-08T10:16:59;5.00;1.00
4795;DHT22;2411;47.060;15.064;2024-03-08T10:19:27;5.00;1.00
4795;DHT22;2411;47.060;15.064;2024-03-08T10:21:57;5.00;1.00
4795;DHT22;2411;47.060;15.064;2024-03-08T10:24:26;5.30;1.00
4795;DHT22;2411;47.060;15.064;2024-03-08T10:27:01;5.50;1.00
4795;DHT22;2411;47.060;15.064;2024-03-08T10:29:32;5.40;1.00
4795;DHT22;2411;47.060;15.064;2024-03-08T10:31:59;5.60;1.00
4795;DHT22;2411;47.060;15.064;2024-03-08T10:34:27;5.50;1.00
4795;DHT22;2411;47.060;15.064;2024-03-08T10:37:04;5.50;1.00
4795;DHT22;2411;47.060;15.064;2024-03-08T10:39:35;5.80;1.00
4795;DHT22;2411;47.060;15.064;2024-03-08T10:42:04;6.00;1.00
4795;DHT22;2411;47.060;15.064;2024-03-08T10:47:02;5.90;1.00
4795;DHT22;2411;47.060;15.064;2024-03-08T10:49:38;5.90;1.00
4795;DHT22;2411;47.060;15.064;2024-03-08T10:52:06;5.80;1.00
4795;DHT22;2411;47.060;15.064;2024-03-08T10:54:37;5.80;1.00
4795;DHT22;2411;47.060;15.064;2024-03-08T10:57:13;6.10;1.00
4795;DHT22;2411;47.060;15.064;2024-03-08T10:59:42;6.20;1.00
4795;DHT22;2411;47.060;15.064;2024-03-08T11:02:12;6.20;1.00
4795;DHT22;2411;47.060;15.064;2024-03-08T11:04:39;6.30;1.00
4795;DHT22;2411;47.060;15.064;2024-03-08T11:07:12;6.10;1.00
4795;DHT22;2411;47.060;15.064;2024-03-08T11:09:44;6.20;1.00
4795;DHT22;2411;47.060;15.064;2024-03-08T11:12:29;6.20;1.00
4795;DHT22;2411;47.060;15.064;2024-03-08T11:15:10;6.20;1.00
4795;DHT22;2411;47.060;15.064;2024-03-08T11:20:17;6.20;1.00
4795;DHT22;2411;47.060;15.064;2024-03-08T11:22:53;6.40;1.00
4795;DHT22;2411;47.060;15.064;2024-03-08T11:25:38;6.10;1.00
4795;DHT22;2411;47.060;15.064;2024-03-08T11:33:40;6.30;1.00
4795;DHT22;2411;47.060;15.064;2024-03-08T11:36:11;6.30;1.00
4795;DHT22;2411;47.060;15.064;2024-03-08T11:38:42;6.00;1.00
4795;DHT22;2411;47.060;15.064;2024-03-08T11:41:10;5.90;1.00
4795;DHT22;2411;47.060;15.064;2024-03-08T11:43:45;5.80;1.00
4795;DHT22;2411;47.060;15.064;2024-03-08T11:46:13;6.10;1.00
4795;DHT22;2411;47.060;15.064;2024-03-08T11:48:41;6.20;1.00
4795;DHT22;2411;47.060;15.064;2024-03-08T11:51:13;6.40;1.00
4795;DHT22;2411;47.060;15.064;2024-03-08T11:53:41;6.30;1.00
4795;DHT22;2411;47.060;15.064;2024-03-08T11:56:14;6.20;1.00
4795;DHT22;2411;47.060;15.064;2024-03-08T11:58:41;6.10;1.00
4795;DHT22;2411;47.060;15.064;2024-03-08T12:01:10;5.80;1.00
4795;DHT22;2411;47.060;15.064;2024-03-08T12:03:41;5.80;1.00
4795;DHT22;2411;47.060;15.064;2024-03-08T12:06:11;5.70;1.00
4795;DHT22;2411;47.060;15.064;2024-03-08T12:08:40;5.60;1.00
4795;DHT22;2411;47.060;15.064;2024-03-08T12:11:07;5.70;1.00
4795;DHT22;2411;47.060;15.064;2024-03-08T12:13:37;5.80;1.00
4795;DHT22;2411;47.060;15.064;2024-03-08T12:16:04;5.70;1.00
4795;DHT22;2411;47.060;15.064;2024-03-08T12:18:36;5.70;1.00
4795;DHT22;2411;47.060;15.064;2024-03-08T12:21:08;5.90;1.00
4795;DHT22;2411;47.060;15.064;2024-03-08T12:23:36;6.10;1.00
4795;DHT22;2411;47.060;15.064;2024-03-08T12:26:17;6.00;1.00
4795;DHT22;2411;47.060;15.064;2024-03-08T12:28:45;6.10;1.00
4795;DHT22;2411;47.060;15.064;2024-03-08T12:31:16;6.00;1.00
4795;DHT22;2411;47.060;15.064;2024-03-08T12:33:54;6.10;1.00
4795;DHT22;2411;47.060;15.064;2024-03-08T12:36:25;6.20;1.00
4795;DHT22;2411;47.060;15.064;2024-03-08T12:38:53;6.10;1.00
4795;DHT22;2411;47.060;15.064;2024-03-08T12:41:21;6.00;1.00
4795;DHT22;2411;47.060;15.064;2024-03-08T12:43:48;6.00;1.00
4795;DHT22;2411;47.060;15.064;2024-03-08T12:46:19;5.90;1.00
4795;DHT22;2411;47.060;15.064;2024-03-08T12:48:53;5.80;1.00
4795;DHT22;2411;47.060;15.064;2024-03-08T12:51:21;5.80;1.00
4795;DHT22;2411;47.060;15.064;2024-03-08T12:53:48;5.70;1.00
4795;DHT22;2411;47.060;15.064;2024-03-08T12:56:29;5.90;1.00
4795;DHT22;2411;47.060;15.064;2024-03-08T12:58:56;5.90;1.00
4795;DHT22;2411;47.060;15.064;2024-03-08T13:01:23;6.00;1.00
4795;DHT22;2411;47.060;15.064;2024-03-08T13:03:50;6.10;1.00
4795;DHT22;2411;47.060;15.064;2024-03-08T13:06:18;6.10;1.00
4795;DHT22;2411;47.060;15.064;2024-03-08T13:08:46;6.10;1.00
4795;DHT22;2411;47.060;15.064;2024-03-08T13:11:14;6.10;1.00
4795;DHT22;2411;47.060;15.064;2024-03-08T13:13:42;6.10;1.00
4795;DHT22;2411;47.060;15.064;2024-03-08T13:16:09;6.10;1.00
4795;DHT22;2411;47.060;15.064;2024-03-08T13:18:36;6.00;1.00
4795;DHT22;2411;47.060;15.064;2024-03-08T13:21:04;5.90;1.00
4795;DHT22;2411;47.060;15.064;2024-03-08T13:23:35;5.80;1.00
4795;DHT22;2411;47.060;15.064;2024-03-08T13:26:10;5.80;1.00
4795;DHT22;2411;47.060;15.064;2024-03-08T13:28:45;5.80;1.00
4795;DHT22;2411;47.060;15.064;2024-03-08T13:31:13;5.80;1.00
4795;DHT22;2411;47.060;15.064;2024-03-08T13:33:41;5.70;1.00
4795;DHT22;2411;47.060;15.064;2024-03-08T13:36:13;5.70;1.00
4795;DHT22;2411;47.060;15.064;2024-03-08T13:38:48;5.60;1.00
4795;DHT22;2411;47.060;15.064;2024-03-08T13:41:16;5.60;1.00
4795;DHT22;2411;47.060;15.064;2024-03-08T13:43:46;5.70;1.00
4795;DHT22;2411;47.060;15.064;2024-03-08T13:46:17;5.80;1.00
4795;DHT22;2411;47.060;15.064;2024-03-08T13:48:44;5.90;1.00
4795;DHT22;2411;47.060;15.064;2024-03-08T13:51:11;5.90;1.00
4795;DHT22;2411;47.060;15.064;2024-03-08T13:53:42;5.80;1.00
4795;DHT22;2411;47.060;15.064;2024-03-08T13:56:09;5.80;1.00
4795;DHT22;2411;47.060;15.064;2024-03-08T13:58:39;5.80;1.00
4795;DHT22;2411;47.060;15.064;2024-03-08T14:01:07;5.80;1.00
4795;DHT22;2411;47.060;15.064;2024-03-08T14:03:39;5.70;1.00
4795;DHT22;2411;47.060;15.064;2024-03-08T14:06:09;5.70;1.00
4795;DHT22;2411;47.060;15.064;2024-03-08T14:08:36;5.70;1.00
4795;DHT22;2411;47.060;15.064;2024-03-08T14:11:06;5.70;1.00
4795;DHT22;2411;47.060;15.064;2024-03-08T14:13:42;5.80;1.00
4795;DHT22;2411;47.060;15.064;2024-03-08T14:16:14;5.80;1.00
4795;DHT22;2411;47.060;15.064;2024-03-08T14:18:42;5.90;1.00
4795;DHT22;2411;47.060;15.064;2024-03-08T14:21:09;5.90;1.00
4795;DHT22;2411;47.060;15.064;2024-03-08T14:23:37;6.00;1.00
4795;DHT22;2411;47.060;15.064;2024-03-08T14:26:04;6.20;1.00
4795;DHT22;2411;47.060;15.064;2024-03-08T14:28:34;6.30;1.00
4795;DHT22;2411;47.060;15.064;2024-03-08T14:31:02;6.30;1.00
4795;DHT22;2411;47.060;15.064;2024-03-08T14:33:37;6.30;1.00
4795;DHT22;2411;47.060;15.064;2024-03-08T14:36:04;6.30;1.00
4795;DHT22;2411;47.060;15.064;2024-03-08T14:38:32;6.30;1.00
4795;DHT22;2411;47.060;15.064;2024-03-08T14:41:01;6.30;1.00
4795;DHT22;2411;47.060;15.064;2024-03-08T14:43:31;6.20;1.00
4795;DHT22;2411;47.060;15.064;2024-03-08T14:45:59;6.20;1.00
4795;DHT22;2411;47.060;15.064;2024-03-08T14:48:26;6.10;1.00
4795;DHT22;2411;47.060;15.064;2024-03-08T14:50:53;6.00;1.00
4795;DHT22;2411;47.060;15.064;2024-03-08T14:53:20;5.80;1.00
4795;DHT22;2411;47.060;15.064;2024-03-08T14:55:47;5.70;1.00
4795;DHT22;2411;47.060;15.064;2024-03-08T14:58:14;5.70;1.00
4795;DHT22;2411;47.060;15.064;2024-03-08T15:00:42;5.70;1.00
4795;DHT22;2411;47.060;15.064;2024-03-08T15:03:10;5.80;1.00
4795;DHT22;2411;47.060;15.064;2024-03-08T15:05:40;5.80;1.00
4795;DHT22;2411;47.060;15.064;2024-03-08T15:08:14;5.70;1.00
4795;DHT22;2411;47.060;15.064;2024-03-08T15:10:47;5.60;1.00
4795;DHT22;2411;47.060;15.064;2024-03-08T15:13:21;5.50;1.00
4795;DHT22;2411;47.060;15.064;2024-03-08T15:15:50;5.40;1.00
4795;DHT22;2411;47.060;15.064;2024-03-08T15:18:26;5.40;1.00
4795;DHT22;2411;47.060;15.064;2024-03-08T15:20:57;5.40;1.00
4795;DHT22;2411;47.060;15.064;2024-03-08T15:23:24;5.40;1.00
4795;DHT22;2411;47.060;15.064;2024-03-08T15:25:51;5.40;1.00
4795;DHT22;2411;47.060;15.064;2024-03-08T15:28:19;5.40;1.00
4795;DHT22;2411;47.060;15.064;2024-03-08T15:30:54;5.30;1.00
4795;DHT22;2411;47.060;15.064;2024-03-08T15:33:22;5.30;1.00
4795;DHT22;2411;47.060;15.064;2024-03-08T15:35:54;5.10;1.00
4795;DHT22;2411;47.060;15.064;2024-03-08T15:38:42;5.20;1.00
4795;DHT22;2411;47.060;15.064;2024-03-08T15:41:18;5.10;1.00
4795;DHT22;2411;47.060;15.064;2024-03-08T15:43:45;4.90;1.00
4795;DHT22;2411;47.060;15.064;2024-03-08T15:46:12;4.90;1.00
4795;DHT22;2411;47.060;15.064;2024-03-08T15:48:40;4.90;1.00
4795;DHT22;2411;47.060;15.064;2024-03-08T15:51:09;4.80;1.00
4795;DHT22;2411;47.060;15.064;2024-03-08T15:53:40;4.80;1.00
4795;DHT22;2411;47.060;15.064;2024-03-08T15:56:07;4.90;1.00
4795;DHT22;2411;47.060;15.064;2024-03-08T15:58:36;4.90;1.00
4795;DHT22;2411;47.060;15.064;2024-03-08T16:01:05;4.80;1.00
4795;DHT22;2411;47.060;15.064;2024-03-08T16:03:37;4.80;1.00
4795;DHT22;2411;47.060;15.064;2024-03-08T16:06:04;4.80;1.00
4795;DHT22;2411;47.060;15.064;2024-03-08T16:08:33;4.70;1.00
4795;DHT22;2411;47.060;15.064;2024-03-08T16:11:03;4.60;1.00
4795;DHT22;2411;47.060;15.064;2024-03-08T16:13:34;4.60;1.00
4795;DHT22;2411;47.060;15.064;2024-03-08T16:16:07;4.70;1.00
4795;DHT22;2411;47.060;15.064;2024-03-08T16:18:34;4.60;1.00
4795;DHT22;2411;47.060;15.064;2024-03-08T16:21:01;4.70;1.00
4795;DHT22;2411;47.060;15.064;2024-03-08T16:23:30;4.60;1.00
4795;DHT22;2411;47.060;15.064;2024-03-08T16:25:57;4.60;1.00
4795;DHT22;2411;47.060;15.064;2024-03-08T16:28:25;4.50;1.00
4795;DHT22;2411;47.060;15.064;2024-03-08T16:31:01;4.60;1.00
4795;DHT22;2411;47.060;15.064;2024-03-08T16:33:31;4.60;1.00
4795;DHT22;2411;47.060;15.064;2024-03-08T16:35:58;4.50;1.00
4795;DHT22;2411;47.060;15.064;2024-03-08T16:38:26;4.50;1.00